sensor_id;sensor_type;location;lat;lon;timestamp;P1;durP1;ratioP1;P2;durP2;ratioP2
3789;SDS011;1910;49.042;9.028;2022-11-15T00:01:35;4.20;;;3.10;;
3789;SDS011;1910;49.042;9.028;2022-11-15T00:04:04;3.38;;;2.95;;
3789;SDS011;1910;49.042;9.028;2022-11-15T00:06:30;4.95;;;2.90;;
3789;SDS011;1910;49.042;9.028;2022-11-15T00:08:59;6.27;;;2.70;;
3789;SDS011;1910;49.042;9.028;2022-11-15T00:11:25;3.60;;;2.88;;
3789;SDS011;1910;49.042;9.028;2022-11-15T00:13:54;6.28;;;3.30;;
3789;SDS011;1910;49.042;9.028;2022-11-15T00:16:20;4.22;;;2.17;;
3789;SDS011;1910;49.042;9.028;2022-11-15T00:18:46;2.87;;;2.23;;
3789;SDS011;1910;49.042;9.028;2022-11-15T00:21:12;2.50;;;1.93;;
3789;SDS011;1910;49.042;9.028;2022-11-15T00:23:38;3.40;;;2.58;;
3789;SDS011;1910;49.042;9.028;2022-11-15T00:26:04;3.10;;;2.50;;
3789;SDS011;1910;49.042;9.028;2022-11-15T00:28:30;4.03;;;1.77;;
3789;SDS011;1910;49.042;9.028;2022-11-15T00:31:00;3.03;;;1.93;;
3789;SDS011;1910;49.042;9.028;2022-11-15T00:33:27;3.40;;;2.17;;
3789;SDS011;1910;49.042;9.028;2022-11-15T00:35:52;2.27;;;2.07;;
3789;SDS011;1910;49.042;9.028;2022-11-15T00:38:18;4.20;;;2.90;;
3789;SDS011;1910;49.042;9.028;2022-11-15T00:40:43;3.73;;;2.03;;
3789;SDS011;1910;49.042;9.028;2022-11-15T00:43:09;4.30;;;2.40;;
3789;SDS011;1910;49.042;9.028;2022-11-15T00:45:34;4.73;;;2.50;;
3789;SDS011;1910;49.042;9.028;2022-11-15T00:48:00;2.50;;;2.20;;
3789;SDS011;1910;49.042;9.028;2022-11-15T00:50:25;4.80;;;2.33;;
3789;SDS011;1910;49.042;9.028;2022-11-15T00:52:51;3.17;;;2.33;;
3789;SDS011;1910;49.042;9.028;2022-11-15T00:55:17;2.70;;;2.03;;
3789;SDS011;1910;49.042;9.028;2022-11-15T00:57:43;3.28;;;2.15;;
3789;SDS011;1910;49.042;9.028;2022-11-15T01:00:09;6.13;;;2.67;;
3789;SDS011;1910;49.042;9.028;2022-11-15T01:02:35;3.30;;;3.00;;
3789;SDS011;1910;49.042;9.028;2022-11-15T01:05:00;3.67;;;2.70;;
3789;SDS011;1910;49.042;9.028;2022-11-15T01:07:26;4.80;;;1.87;;
3789;SDS011;1910;49.042;9.028;2022-11-15T01:09:52;4.73;;;1.80;;
3789;SDS011;1910;49.042;9.028;2022-11-15T01:12:18;4.40;;;3.10;;
3789;SDS011;1910;49.042;9.028;2022-11-15T01:14:44;4.37;;;2.40;;
3789;SDS011;1910;49.042;9.028;2022-11-15T01:17:10;4.47;;;2.50;;
3789;SDS011;1910;49.042;9.028;2022-11-15T01:19:36;5.43;;;2.17;;
3789;SDS011;1910;49.042;9.028;2022-11-15T01:22:02;1.60;;;1.20;;
3789;SDS011;1910;49.042;9.028;2022-11-15T01:24:28;2.93;;;2.10;;
3789;SDS011;1910;49.042;9.028;2022-11-15T01:26:54;2.83;;;2.33;;
3789;SDS011;1910;49.042;9.028;2022-11-15T01:29:19;2.87;;;1.87;;
3789;SDS011;1910;49.042;9.028;2022-11-15T01:31:45;3.97;;;2.50;;
3789;SDS011;1910;49.042;9.028;2022-11-15T01:34:10;4.17;;;2.30;;
3789;SDS011;1910;49.042;9.028;2022-11-15T01:36:36;3.40;;;2.37;;
3789;SDS011;1910;49.042;9.028;2022-11-15T01:39:02;2.23;;;1.53;;
3789;SDS011;1910;49.042;9.028;2022-11-15T01:41:31;5.10;;;2.77;;
3789;SDS011;1910;49.042;9.028;2022-11-15T01:44:30;5.10;;;2.75;;
3789;SDS011;1910;49.042;9.028;2022-11-15T01:46:58;7.30;;;2.28;;
3789;SDS011;1910;49.042;9.028;2022-11-15T01:49:27;6.05;;;2.60;;
3789;SDS011;1910;49.042;9.028;2022-11-15T01:51:57;2.92;;;2.28;;
3789;SDS011;1910;49.042;9.028;2022-11-15T01:54:23;3.00;;;2.70;;
3789;SDS011;1910;49.042;9.028;2022-11-15T01:57:01;3.53;;;2.33;;
3789;SDS011;1910;49.042;9.028;2022-11-15T01:59:31;7.40;;;2.20;;
3789;SDS011;1910;49.042;9.028;2022-11-15T02:01:57;4.05;;;2.50;;
3789;SDS011;1910;49.042;9.028;2022-11-15T02:04:27;4.70;;;2.17;;
3789;SDS011;1910;49.042;9.028;2022-11-15T02:06:56;3.63;;;2.50;;
3789;SDS011;1910;49.042;9.028;2022-11-15T02:09:22;3.57;;;1.77;;
3789;SDS011;1910;49.042;9.028;2022-11-15T02:11:47;5.43;;;2.77;;
3789;SDS011;1910;49.042;9.028;2022-11-15T02:14:14;3.25;;;2.10;;
3789;SDS011;1910;49.042;9.028;2022-11-15T02:25:13;5.43;;;2.72;;
3789;SDS011;1910;49.042;9.028;2022-11-15T02:28:16;2.25;;;1.80;;
3789;SDS011;1910;49.042;9.028;2022-11-15T02:31:19;2.28;;;1.60;;
3789;SDS011;1910;49.042;9.028;2022-11-15T02:37:14;6.30;;;2.00;;
3789;SDS011;1910;49.042;9.028;2022-11-15T02:42:26;5.30;;;2.50;;
3789;SDS011;1910;49.042;9.028;2022-11-15T02:45:17;5.85;;;1.98;;
3789;SDS011;1910;49.042;9.028;2022-11-15T02:47:49;2.10;;;1.63;;
3789;SDS011;1910;49.042;9.028;2022-11-15T02:50:20;4.68;;;2.70;;
3789;SDS011;1910;49.042;9.028;2022-11-15T02:52:48;5.57;;;2.60;;
3789;SDS011;1910;49.042;9.028;2022-11-15T03:01:03;2.40;;;2.10;;
3789;SDS011;1910;49.042;9.028;2022-11-15T03:06:44;6.93;;;2.38;;
3789;SDS011;1910;49.042;9.028;2022-11-15T03:12:13;2.40;;;1.90;;
3789;SDS011;1910;49.042;9.028;2022-11-15T03:15:05;4.80;;;2.60;;
3789;SDS011;1910;49.042;9.028;2022-11-15T03:17:38;3.67;;;2.30;;
3789;SDS011;1910;49.042;9.028;2022-11-15T03:20:11;2.28;;;1.92;;
3789;SDS011;1910;49.042;9.028;2022-11-15T03:22:42;4.43;;;2.35;;
3789;SDS011;1910;49.042;9.028;2022-11-15T03:25:13;2.75;;;1.98;;
3789;SDS011;1910;49.042;9.028;2022-11-15T03:27:46;3.42;;;2.03;;
3789;SDS011;1910;49.042;9.028;2022-11-15T03:30:15;2.88;;;1.83;;
3789;SDS011;1910;49.042;9.028;2022-11-15T03:32:43;1.88;;;1.40;;
3789;SDS011;1910;49.042;9.028;2022-11-15T03:35:13;4.13;;;2.28;;
3789;SDS011;1910;49.042;9.028;2022-11-15T03:37:56;4.97;;;1.88;;
3789;SDS011;1910;49.042;9.028;2022-11-15T03:40:30;6.00;;;2.13;;
3789;SDS011;1910;49.042;9.028;2022-11-15T03:43:08;2.45;;;2.20;;
3789;SDS011;1910;49.042;9.028;2022-11-15T03:45:54;6.13;;;1.77;;
3789;SDS011;1910;49.042;9.028;2022-11-15T03:48:47;2.60;;;1.90;;
3789;SDS011;1910;49.042;9.028;2022-11-15T03:51:16;3.75;;;2.10;;
3789;SDS011;1910;49.042;9.028;2022-11-15T03:53:42;2.90;;;2.05;;
3789;SDS011;1910;49.042;9.028;2022-11-15T03:56:08;1.77;;;1.40;;
3789;SDS011;1910;49.042;9.028;2022-11-15T03:58:33;1.53;;;1.43;;
3789;SDS011;1910;49.042;9.028;2022-11-15T04:00:59;3.60;;;1.70;;
3789;SDS011;1910;49.042;9.028;2022-11-15T04:03:25;3.63;;;1.40;;
3789;SDS011;1910;49.042;9.028;2022-11-15T04:05:51;2.70;;;1.57;;
3789;SDS011;1910;49.042;9.028;2022-11-15T04:08:17;2.80;;;1.30;;
3789;SDS011;1910;49.042;9.028;2022-11-15T04:10:42;3.23;;;1.40;;
3789;SDS011;1910;49.042;9.028;2022-11-15T04:15:37;4.10;;;1.77;;
3789;SDS011;1910;49.042;9.028;2022-11-15T04:18:03;6.23;;;1.50;;
3789;SDS011;1910;49.042;9.028;2022-11-15T04:20:29;2.50;;;1.83;;
3789;SDS011;1910;49.042;9.028;2022-11-15T04:23:21;2.40;;;1.45;;
3789;SDS011;1910;49.042;9.028;2022-11-15T04:26:08;2.92;;;1.42;;
3789;SDS011;1910;49.042;9.028;2022-11-15T04:28:36;2.75;;;1.52;;
3789;SDS011;1910;49.042;9.028;2022-11-15T04:31:25;2.33;;;1.52;;
3789;SDS011;1910;49.042;9.028;2022-11-15T04:33:51;1.58;;;1.17;;
3789;SDS011;1910;49.042;9.028;2022-11-15T04:36:17;2.50;;;1.70;;
3789;SDS011;1910;49.042;9.028;2022-11-15T04:39:02;1.40;;;1.20;;
3789;SDS011;1910;49.042;9.028;2022-11-15T04:41:29;1.80;;;1.30;;
3789;SDS011;1910;49.042;9.028;2022-11-15T04:43:54;2.53;;;1.30;;
3789;SDS011;1910;49.042;9.028;2022-11-15T04:46:20;3.93;;;2.00;;
3789;SDS011;1910;49.042;9.028;2022-11-15T04:48:49;1.27;;;1.17;;
3789;SDS011;1910;49.042;9.028;2022-11-15T04:51:16;1.90;;;1.48;;
3789;SDS011;1910;49.042;9.028;2022-11-15T04:53:42;2.55;;;1.70;;
3789;SDS011;1910;49.042;9.028;2022-11-15T04:56:07;7.70;;;1.60;;
3789;SDS011;1910;49.042;9.028;2022-11-15T04:58:33;1.00;;;0.87;;
3789;SDS011;1910;49.042;9.028;2022-11-15T05:01:06;5.07;;;1.50;;
3789;SDS011;1910;49.042;9.028;2022-11-15T05:03:32;3.22;;;1.60;;
3789;SDS011;1910;49.042;9.028;2022-11-15T05:06:16;2.10;;;1.40;;
3789;SDS011;1910;49.042;9.028;2022-11-15T05:08:42;4.17;;;1.77;;
3789;SDS011;1910;49.042;9.028;2022-11-15T05:11:07;1.37;;;1.27;;
3789;SDS011;1910;49.042;9.028;2022-11-15T05:13:33;2.67;;;1.70;;
3789;SDS011;1910;49.042;9.028;2022-11-15T05:16:02;4.50;;;1.70;;
3789;SDS011;1910;49.042;9.028;2022-11-15T05:18:27;2.08;;;1.60;;
3789;SDS011;1910;49.042;9.028;2022-11-15T05:20:53;1.97;;;1.77;;
3789;SDS011;1910;49.042;9.028;2022-11-15T05:23:18;5.20;;;1.87;;
3789;SDS011;1910;49.042;9.028;2022-11-15T05:25:44;3.23;;;1.63;;
3789;SDS011;1910;49.042;9.028;2022-11-15T05:28:09;2.80;;;1.50;;
3789;SDS011;1910;49.042;9.028;2022-11-15T05:30:35;1.83;;;1.33;;
3789;SDS011;1910;49.042;9.028;2022-11-15T05:33:00;1.17;;;0.77;;
3789;SDS011;1910;49.042;9.028;2022-11-15T05:35:30;2.13;;;1.20;;
3789;SDS011;1910;49.042;9.028;2022-11-15T05:38:08;2.38;;;1.42;;
3789;SDS011;1910;49.042;9.028;2022-11-15T05:40:34;3.30;;;1.67;;
3789;SDS011;1910;49.042;9.028;2022-11-15T05:43:00;4.10;;;1.70;;
3789;SDS011;1910;49.042;9.028;2022-11-15T05:45:27;3.28;;;1.33;;
3789;SDS011;1910;49.042;9.028;2022-11-15T05:47:54;4.35;;;2.13;;
3789;SDS011;1910;49.042;9.028;2022-11-15T05:50:24;2.53;;;1.30;;
3789;SDS011;1910;49.042;9.028;2022-11-15T05:52:50;4.00;;;1.92;;
3789;SDS011;1910;49.042;9.028;2022-11-15T05:55:16;3.15;;;1.65;;
3789;SDS011;1910;49.042;9.028;2022-11-15T05:57:42;2.70;;;1.80;;
3789;SDS011;1910;49.042;9.028;2022-11-15T06:00:08;2.53;;;1.87;;
3789;SDS011;1910;49.042;9.028;2022-11-15T06:02:34;2.20;;;1.65;;
3789;SDS011;1910;49.042;9.028;2022-11-15T06:05:00;3.70;;;1.60;;
3789;SDS011;1910;49.042;9.028;2022-11-15T06:07:26;1.97;;;1.47;;
3789;SDS011;1910;49.042;9.028;2022-11-15T06:09:56;2.00;;;1.37;;
3789;SDS011;1910;49.042;9.028;2022-11-15T06:12:23;3.78;;;2.35;;
3789;SDS011;1910;49.042;9.028;2022-11-15T06:14:49;2.70;;;1.25;;
3789;SDS011;1910;49.042;9.028;2022-11-15T06:17:16;5.22;;;1.70;;
3789;SDS011;1910;49.042;9.028;2022-11-15T06:19:42;2.10;;;1.23;;
3789;SDS011;1910;49.042;9.028;2022-11-15T06:22:10;7.43;;;2.00;;
3789;SDS011;1910;49.042;9.028;2022-11-15T06:24:36;2.50;;;1.60;;
3789;SDS011;1910;49.042;9.028;2022-11-15T06:27:01;4.43;;;1.00;;
3789;SDS011;1910;49.042;9.028;2022-11-15T06:29:27;7.77;;;1.50;;
3789;SDS011;1910;49.042;9.028;2022-11-15T06:31:52;1.53;;;1.00;;
3789;SDS011;1910;49.042;9.028;2022-11-15T06:34:18;2.40;;;1.00;;
3789;SDS011;1910;49.042;9.028;2022-11-15T06:36:43;3.33;;;1.00;;
3789;SDS011;1910;49.042;9.028;2022-11-15T06:39:09;2.00;;;1.27;;
3789;SDS011;1910;49.042;9.028;2022-11-15T06:41:38;2.43;;;1.30;;
3789;SDS011;1910;49.042;9.028;2022-11-15T06:44:04;1.77;;;1.60;;
3789;SDS011;1910;49.042;9.028;2022-11-15T06:46:29;2.10;;;1.67;;
3789;SDS011;1910;49.042;9.028;2022-11-15T06:48:55;3.10;;;1.70;;
3789;SDS011;1910;49.042;9.028;2022-11-15T06:51:20;3.27;;;1.70;;
3789;SDS011;1910;49.042;9.028;2022-11-15T06:53:46;3.87;;;2.03;;
3789;SDS011;1910;49.042;9.028;2022-11-15T06:56:13;1.48;;;1.38;;
3789;SDS011;1910;49.042;9.028;2022-11-15T06:58:40;6.10;;;1.73;;
3789;SDS011;1910;49.042;9.028;2022-11-15T07:01:07;2.80;;;1.90;;
3789;SDS011;1910;49.042;9.028;2022-11-15T07:03:34;2.33;;;1.40;;
3789;SDS011;1910;49.042;9.028;2022-11-15T07:06:01;2.85;;;2.00;;
3789;SDS011;1910;49.042;9.028;2022-11-15T07:08:28;3.47;;;2.03;;
3789;SDS011;1910;49.042;9.028;2022-11-15T07:10:54;3.80;;;2.00;;
3789;SDS011;1910;49.042;9.028;2022-11-15T07:13:27;1.92;;;1.73;;
3789;SDS011;1910;49.042;9.028;2022-11-15T07:15:55;3.55;;;1.80;;
3789;SDS011;1910;49.042;9.028;2022-11-15T07:18:27;3.92;;;1.60;;
3789;SDS011;1910;49.042;9.028;2022-11-15T07:20:52;5.95;;;1.80;;
3789;SDS011;1910;49.042;9.028;2022-11-15T07:23:18;2.27;;;1.40;;
3789;SDS011;1910;49.042;9.028;2022-11-15T07:25:44;5.93;;;1.97;;
3789;SDS011;1910;49.042;9.028;2022-11-15T07:28:12;1.80;;;1.50;;
3789;SDS011;1910;49.042;9.028;2022-11-15T07:30:38;3.20;;;1.37;;
3789;SDS011;1910;49.042;9.028;2022-11-15T07:33:04;2.37;;;1.73;;
3789;SDS011;1910;49.042;9.028;2022-11-15T07:35:29;2.87;;;1.67;;
3789;SDS011;1910;49.042;9.028;2022-11-15T07:37:56;2.50;;;1.77;;
3789;SDS011;1910;49.042;9.028;2022-11-15T07:40:23;2.93;;;1.80;;
3789;SDS011;1910;49.042;9.028;2022-11-15T07:42:49;4.87;;;1.90;;
3789;SDS011;1910;49.042;9.028;2022-11-15T07:45:17;11.13;;;2.30;;
3789;SDS011;1910;49.042;9.028;2022-11-15T07:47:48;2.23;;;1.60;;
3789;SDS011;1910;49.042;9.028;2022-11-15T07:50:22;1.83;;;1.50;;
3789;SDS011;1910;49.042;9.028;2022-11-15T07:52:55;6.43;;;2.03;;
3789;SDS011;1910;49.042;9.028;2022-11-15T07:55:23;3.03;;;1.77;;
3789;SDS011;1910;49.042;9.028;2022-11-15T07:57:50;2.73;;;2.20;;
3789;SDS011;1910;49.042;9.028;2022-11-15T08:00:16;3.70;;;1.63;;
3789;SDS011;1910;49.042;9.028;2022-11-15T08:02:42;4.70;;;2.33;;
3789;SDS011;1910;49.042;9.028;2022-11-15T08:05:10;1.63;;;1.50;;
3789;SDS011;1910;49.042;9.028;2022-11-15T08:07:35;3.30;;;1.90;;
3789;SDS011;1910;49.042;9.028;2022-11-15T08:10:03;2.30;;;1.60;;
3789;SDS011;1910;49.042;9.028;2022-11-15T08:12:30;2.80;;;1.90;;
3789;SDS011;1910;49.042;9.028;2022-11-15T08:14:56;1.90;;;1.33;;
3789;SDS011;1910;49.042;9.028;2022-11-15T08:17:25;4.23;;;1.90;;
3789;SDS011;1910;49.042;9.028;2022-11-15T08:19:51;2.50;;;1.50;;
3789;SDS011;1910;49.042;9.028;2022-11-15T08:22:16;1.80;;;1.67;;
3789;SDS011;1910;49.042;9.028;2022-11-15T08:24:42;2.60;;;1.63;;
3789;SDS011;1910;49.042;9.028;2022-11-15T08:27:09;3.33;;;1.37;;
3789;SDS011;1910;49.042;9.028;2022-11-15T08:29:40;1.70;;;1.60;;
3789;SDS011;1910;49.042;9.028;2022-11-15T08:32:09;5.53;;;1.90;;
3789;SDS011;1910;49.042;9.028;2022-11-15T08:34:36;4.93;;;1.60;;
3789;SDS011;1910;49.042;9.028;2022-11-15T08:37:02;2.37;;;1.60;;
3789;SDS011;1910;49.042;9.028;2022-11-15T08:39:28;4.93;;;2.00;;
3789;SDS011;1910;49.042;9.028;2022-11-15T08:41:53;2.47;;;1.53;;
3789;SDS011;1910;49.042;9.028;2022-11-15T08:44:19;4.00;;;1.70;;
3789;SDS011;1910;49.042;9.028;2022-11-15T08:46:45;3.53;;;1.70;;
3789;SDS011;1910;49.042;9.028;2022-11-15T08:49:11;7.27;;;1.90;;
3789;SDS011;1910;49.042;9.028;2022-11-15T08:51:36;3.67;;;1.57;;
3789;SDS011;1910;49.042;9.028;2022-11-15T08:54:02;5.80;;;1.90;;
3789;SDS011;1910;49.042;9.028;2022-11-15T08:56:27;1.70;;;1.23;;
3789;SDS011;1910;49.042;9.028;2022-11-15T08:58:53;3.60;;;2.17;;
3789;SDS011;1910;49.042;9.028;2022-11-15T09:01:19;5.23;;;2.23;;
3789;SDS011;1910;49.042;9.028;2022-11-15T09:03:45;8.93;;;2.47;;
3789;SDS011;1910;49.042;9.028;2022-11-15T09:06:14;7.17;;;3.33;;
3789;SDS011;1910;49.042;9.028;2022-11-15T09:08:41;3.73;;;2.57;;
3789;SDS011;1910;49.042;9.028;2022-11-15T09:11:07;6.10;;;3.00;;
3789;SDS011;1910;49.042;9.028;2022-11-15T09:13:37;4.97;;;3.57;;
3789;SDS011;1910;49.042;9.028;2022-11-15T09:16:03;6.60;;;3.13;;
3789;SDS011;1910;49.042;9.028;2022-11-15T09:18:30;8.37;;;3.57;;
3789;SDS011;1910;49.042;9.028;2022-11-15T09:20:57;3.43;;;2.70;;
3789;SDS011;1910;49.042;9.028;2022-11-15T09:23:24;5.07;;;2.80;;
3789;SDS011;1910;49.042;9.028;2022-11-15T09:25:51;2.30;;;1.90;;
3789;SDS011;1910;49.042;9.028;2022-11-15T09:28:17;4.00;;;1.60;;
3789;SDS011;1910;49.042;9.028;2022-11-15T09:30:43;1.77;;;1.63;;
3789;SDS011;1910;49.042;9.028;2022-11-15T09:33:10;4.90;;;1.53;;
3789;SDS011;1910;49.042;9.028;2022-11-15T09:35:38;2.73;;;1.30;;
3789;SDS011;1910;49.042;9.028;2022-11-15T09:38:06;5.87;;;1.50;;
3789;SDS011;1910;49.042;9.028;2022-11-15T09:40:32;2.53;;;1.57;;
3789;SDS011;1910;49.042;9.028;2022-11-15T09:48:48;2.47;;;1.50;;
3789;SDS011;1910;49.042;9.028;2022-11-15T09:51:18;3.63;;;1.50;;
3789;SDS011;1910;49.042;9.028;2022-11-15T09:53:57;6.03;;;1.60;;
3789;SDS011;1910;49.042;9.028;2022-11-15T09:56:29;5.60;;;1.40;;
3789;SDS011;1910;49.042;9.028;2022-11-15T10:04:33;3.13;;;1.40;;
3789;SDS011;1910;49.042;9.028;2022-11-15T10:09:53;3.80;;;1.90;;
3789;SDS011;1910;49.042;9.028;2022-11-15T10:12:18;3.33;;;1.93;;
3789;SDS011;1910;49.042;9.028;2022-11-15T10:14:45;1.83;;;1.40;;
3789;SDS011;1910;49.042;9.028;2022-11-15T10:22:53;4.40;;;1.90;;
3789;SDS011;1910;49.042;9.028;2022-11-15T10:25:25;4.10;;;1.70;;
3789;SDS011;1910;49.042;9.028;2022-11-15T10:27:59;2.10;;;1.90;;
3789;SDS011;1910;49.042;9.028;2022-11-15T10:30:35;5.60;;;1.50;;
3789;SDS011;1910;49.042;9.028;2022-11-15T10:36:19;3.80;;;1.90;;
3789;SDS011;1910;49.042;9.028;2022-11-15T10:41:15;3.87;;;1.87;;
3789;SDS011;1910;49.042;9.028;2022-11-15T10:43:42;1.67;;;1.27;;
3789;SDS011;1910;49.042;9.028;2022-11-15T10:46:18;10.50;;;2.20;;
3789;SDS011;1910;49.042;9.028;2022-11-15T10:48:48;3.40;;;2.17;;
3789;SDS011;1910;49.042;9.028;2022-11-15T10:51:20;6.70;;;2.17;;
3789;SDS011;1910;49.042;9.028;2022-11-15T10:53:53;5.30;;;2.40;;
3789;SDS011;1910;49.042;9.028;2022-11-15T10:56:21;7.30;;;2.60;;
3789;SDS011;1910;49.042;9.028;2022-11-15T10:58:52;6.07;;;2.40;;
3789;SDS011;1910;49.042;9.028;2022-11-15T11:01:24;5.03;;;2.73;;
3789;SDS011;1910;49.042;9.028;2022-11-15T11:04:01;4.13;;;3.27;;
3789;SDS011;1910;49.042;9.028;2022-11-15T11:06:29;6.27;;;3.60;;
3789;SDS011;1910;49.042;9.028;2022-11-15T11:08:56;3.90;;;2.70;;
3789;SDS011;1910;49.042;9.028;2022-11-15T11:11:22;5.57;;;3.77;;
3789;SDS011;1910;49.042;9.028;2022-11-15T11:13:48;19.83;;;3.67;;
3789;SDS011;1910;49.042;9.028;2022-11-15T11:16:17;7.53;;;4.00;;
3789;SDS011;1910;49.042;9.028;2022-11-15T11:22:05;4.90;;;3.37;;
3789;SDS011;1910;49.042;9.028;2022-11-15T11:24:34;7.57;;;3.93;;
3789;SDS011;1910;49.042;9.028;2022-11-15T11:27:17;4.70;;;2.87;;
3789;SDS011;1910;49.042;9.028;2022-11-15T11:35:56;4.47;;;2.60;;
3789;SDS011;1910;49.042;9.028;2022-11-15T11:47:10;6.13;;;2.70;;
3789;SDS011;1910;49.042;9.028;2022-11-15T11:54:58;4.30;;;1.53;;
3789;SDS011;1910;49.042;9.028;2022-11-15T12:03:00;2.53;;;2.33;;
3789;SDS011;1910;49.042;9.028;2022-11-15T12:06:17;6.63;;;2.50;;
3789;SDS011;1910;49.042;9.028;2022-11-15T12:08:29;6.37;;;2.90;;
3789;SDS011;1910;49.042;9.028;2022-11-15T12:11:28;7.33;;;2.90;;
3789;SDS011;1910;49.042;9.028;2022-11-15T12:14:01;6.87;;;2.70;;
3789;SDS011;1910;49.042;9.028;2022-11-15T12:16:31;7.77;;;3.40;;
3789;SDS011;1910;49.042;9.028;2022-11-15T12:18:59;6.50;;;3.90;;
3789;SDS011;1910;49.042;9.028;2022-11-15T12:27:07;16.57;;;4.83;;
3789;SDS011;1910;49.042;9.028;2022-11-15T12:29:46;6.43;;;4.70;;
3789;SDS011;1910;49.042;9.028;2022-11-15T12:32:32;6.10;;;4.33;;
3789;SDS011;1910;49.042;9.028;2022-11-15T12:35:00;7.47;;;4.57;;
3789;SDS011;1910;49.042;9.028;2022-11-15T12:45:24;6.57;;;3.87;;
3789;SDS011;1910;49.042;9.028;2022-11-15T12:47:52;5.70;;;3.70;;
3789;SDS011;1910;49.042;9.028;2022-11-15T12:50:47;6.20;;;3.60;;
3789;SDS011;1910;49.042;9.028;2022-11-15T13:06:46;3.80;;;2.90;;
3789;SDS011;1910;49.042;9.028;2022-11-15T13:12:02;9.67;;;4.23;;
3789;SDS011;1910;49.042;9.028;2022-11-15T13:14:50;11.73;;;4.40;;
3789;SDS011;1910;49.042;9.028;2022-11-15T13:22:39;5.20;;;3.17;;
3789;SDS011;1910;49.042;9.028;2022-11-15T13:25:19;7.03;;;5.30;;
3789;SDS011;1910;49.042;9.028;2022-11-15T13:28:00;4.57;;;3.10;;
3789;SDS011;1910;49.042;9.028;2022-11-15T13:33:31;7.80;;;4.77;;
3789;SDS011;1910;49.042;9.028;2022-11-15T13:36:01;8.90;;;3.50;;
3789;SDS011;1910;49.042;9.028;2022-11-15T13:38:40;9.33;;;4.73;;
3789;SDS011;1910;49.042;9.028;2022-11-15T13:41:18;6.23;;;3.97;;
3789;SDS011;1910;49.042;9.028;2022-11-15T13:43:46;7.73;;;3.60;;
3789;SDS011;1910;49.042;9.028;2022-11-15T13:46:16;7.67;;;4.03;;
3789;SDS011;1910;49.042;9.028;2022-11-15T13:48:44;5.10;;;2.67;;
3789;SDS011;1910;49.042;9.028;2022-11-15T13:51:23;8.10;;;3.60;;
3789;SDS011;1910;49.042;9.028;2022-11-15T13:53:57;5.27;;;3.97;;
3789;SDS011;1910;49.042;9.028;2022-11-15T13:56:27;4.37;;;3.13;;
3789;SDS011;1910;49.042;9.028;2022-11-15T13:58:53;10.30;;;7.20;;
3789;SDS011;1910;49.042;9.028;2022-11-15T14:01:20;9.07;;;5.00;;
3789;SDS011;1910;49.042;9.028;2022-11-15T14:03:49;6.50;;;4.00;;
3789;SDS011;1910;49.042;9.028;2022-11-15T14:06:21;3.93;;;3.30;;
3789;SDS011;1910;49.042;9.028;2022-11-15T14:11:36;7.53;;;4.60;;
3789;SDS011;1910;49.042;9.028;2022-11-15T14:16:34;5.17;;;3.80;;
3789;SDS011;1910;49.042;9.028;2022-11-15T14:19:02;6.33;;;4.83;;
3789;SDS011;1910;49.042;9.028;2022-11-15T14:21:29;5.77;;;3.10;;
3789;SDS011;1910;49.042;9.028;2022-11-15T14:26:40;6.80;;;3.73;;
3789;SDS011;1910;49.042;9.028;2022-11-15T14:32:05;3.67;;;2.90;;
3789;SDS011;1910;49.042;9.028;2022-11-15T14:34:39;7.93;;;3.03;;
3789;SDS011;1910;49.042;9.028;2022-11-15T14:37:04;10.67;;;4.33;;
3789;SDS011;1910;49.042;9.028;2022-11-15T14:39:30;8.57;;;3.70;;
3789;SDS011;1910;49.042;9.028;2022-11-15T14:41:55;5.50;;;4.40;;
3789;SDS011;1910;49.042;9.028;2022-11-15T14:44:21;5.77;;;3.10;;
3789;SDS011;1910;49.042;9.028;2022-11-15T14:46:47;8.70;;;2.90;;
3789;SDS011;1910;49.042;9.028;2022-11-15T14:49:13;6.50;;;3.40;;
3789;SDS011;1910;49.042;9.028;2022-11-15T14:51:40;7.07;;;3.47;;
3789;SDS011;1910;49.042;9.028;2022-11-15T14:54:08;15.67;;;3.37;;
3789;SDS011;1910;49.042;9.028;2022-11-15T14:56:35;7.47;;;3.93;;
3789;SDS011;1910;49.042;9.028;2022-11-15T14:59:00;15.13;;;4.50;;
3789;SDS011;1910;49.042;9.028;2022-11-15T15:01:26;5.60;;;3.10;;
3789;SDS011;1910;49.042;9.028;2022-11-15T15:03:52;5.63;;;3.53;;
3789;SDS011;1910;49.042;9.028;2022-11-15T15:06:23;5.20;;;3.60;;
3789;SDS011;1910;49.042;9.028;2022-11-15T15:08:49;7.90;;;3.40;;
3789;SDS011;1910;49.042;9.028;2022-11-15T15:11:16;4.37;;;2.80;;
3789;SDS011;1910;49.042;9.028;2022-11-15T15:13:46;5.30;;;2.30;;
3789;SDS011;1910;49.042;9.028;2022-11-15T15:16:12;9.50;;;3.00;;
3789;SDS011;1910;49.042;9.028;2022-11-15T15:18:38;9.17;;;3.90;;
3789;SDS011;1910;49.042;9.028;2022-11-15T15:21:04;7.50;;;2.60;;
3789;SDS011;1910;49.042;9.028;2022-11-15T15:23:46;8.07;;;3.63;;
3789;SDS011;1910;49.042;9.028;2022-11-15T15:26:12;5.93;;;5.20;;
3789;SDS011;1910;49.042;9.028;2022-11-15T15:28:38;3.07;;;2.40;;
3789;SDS011;1910;49.042;9.028;2022-11-15T15:31:04;4.78;;;2.75;;
3789;SDS011;1910;49.042;9.028;2022-11-15T15:33:30;6.40;;;3.07;;
3789;SDS011;1910;49.042;9.028;2022-11-15T15:35:56;3.87;;;2.83;;
3789;SDS011;1910;49.042;9.028;2022-11-15T15:38:21;7.23;;;2.90;;
3789;SDS011;1910;49.042;9.028;2022-11-15T15:40:47;7.00;;;2.30;;
3789;SDS011;1910;49.042;9.028;2022-11-15T15:43:13;5.33;;;2.30;;
3789;SDS011;1910;49.042;9.028;2022-11-15T15:45:39;2.63;;;2.40;;
3789;SDS011;1910;49.042;9.028;2022-11-15T15:48:08;3.53;;;2.10;;
3789;SDS011;1910;49.042;9.028;2022-11-15T15:50:37;7.47;;;2.90;;
3789;SDS011;1910;49.042;9.028;2022-11-15T15:53:03;3.27;;;1.87;;
3789;SDS011;1910;49.042;9.028;2022-11-15T15:55:30;3.78;;;2.55;;
3789;SDS011;1910;49.042;9.028;2022-11-15T15:57:58;2.90;;;2.10;;
3789;SDS011;1910;49.042;9.028;2022-11-15T16:00:25;4.97;;;2.37;;
3789;SDS011;1910;49.042;9.028;2022-11-15T16:02:51;4.10;;;2.23;;
3789;SDS011;1910;49.042;9.028;2022-11-15T16:05:17;4.67;;;2.43;;
3789;SDS011;1910;49.042;9.028;2022-11-15T16:07:42;6.40;;;2.97;;
3789;SDS011;1910;49.042;9.028;2022-11-15T16:10:19;10.13;;;3.40;;
3789;SDS011;1910;49.042;9.028;2022-11-15T16:12:47;3.30;;;2.70;;
3789;SDS011;1910;49.042;9.028;2022-11-15T16:15:13;3.80;;;3.30;;
3789;SDS011;1910;49.042;9.028;2022-11-15T16:17:40;5.50;;;2.03;;
3789;SDS011;1910;49.042;9.028;2022-11-15T16:20:29;3.30;;;2.77;;
3789;SDS011;1910;49.042;9.028;2022-11-15T16:22:57;4.07;;;2.50;;
3789;SDS011;1910;49.042;9.028;2022-11-15T16:25:24;5.40;;;3.30;;
3789;SDS011;1910;49.042;9.028;2022-11-15T16:27:50;6.10;;;2.90;;
3789;SDS011;1910;49.042;9.028;2022-11-15T16:30:17;3.50;;;2.90;;
3789;SDS011;1910;49.042;9.028;2022-11-15T16:32:44;4.83;;;3.33;;
3789;SDS011;1910;49.042;9.028;2022-11-15T16:35:13;4.40;;;2.90;;
3789;SDS011;1910;49.042;9.028;2022-11-15T16:37:40;8.63;;;4.82;;
3789;SDS011;1910;49.042;9.028;2022-11-15T16:40:22;11.07;;;3.30;;
3789;SDS011;1910;49.042;9.028;2022-11-15T16:42:52;5.07;;;3.70;;
3789;SDS011;1910;49.042;9.028;2022-11-15T16:45:18;5.83;;;3.47;;
3789;SDS011;1910;49.042;9.028;2022-11-15T16:47:44;12.33;;;5.13;;
3789;SDS011;1910;49.042;9.028;2022-11-15T16:50:26;11.47;;;4.90;;
3789;SDS011;1910;49.042;9.028;2022-11-15T16:52:54;7.50;;;3.63;;
3789;SDS011;1910;49.042;9.028;2022-11-15T16:55:21;5.80;;;3.20;;
3789;SDS011;1910;49.042;9.028;2022-11-15T16:57:48;4.27;;;2.40;;
3789;SDS011;1910;49.042;9.028;2022-11-15T17:00:15;3.23;;;2.50;;
3789;SDS011;1910;49.042;9.028;2022-11-15T17:02:46;5.07;;;2.60;;
3789;SDS011;1910;49.042;9.028;2022-11-15T17:05:13;7.07;;;3.77;;
3789;SDS011;1910;49.042;9.028;2022-11-15T17:07:40;5.05;;;3.20;;
3789;SDS011;1910;49.042;9.028;2022-11-15T17:10:06;3.83;;;3.50;;
3789;SDS011;1910;49.042;9.028;2022-11-15T17:12:35;3.53;;;2.77;;
3789;SDS011;1910;49.042;9.028;2022-11-15T17:15:00;6.67;;;3.43;;
3789;SDS011;1910;49.042;9.028;2022-11-15T17:17:26;7.03;;;2.93;;
3789;SDS011;1910;49.042;9.028;2022-11-15T17:19:53;8.93;;;4.80;;
3789;SDS011;1910;49.042;9.028;2022-11-15T17:22:19;10.30;;;7.55;;
3789;SDS011;1910;49.042;9.028;2022-11-15T17:24:45;6.43;;;4.50;;
3789;SDS011;1910;49.042;9.028;2022-11-15T17:27:10;4.73;;;3.03;;
3789;SDS011;1910;49.042;9.028;2022-11-15T17:29:36;5.43;;;3.30;;
3789;SDS011;1910;49.042;9.028;2022-11-15T17:32:02;7.90;;;5.07;;
3789;SDS011;1910;49.042;9.028;2022-11-15T17:34:27;6.47;;;4.17;;
3789;SDS011;1910;49.042;9.028;2022-11-15T17:36:53;9.30;;;6.33;;
3789;SDS011;1910;49.042;9.028;2022-11-15T17:39:19;9.90;;;5.30;;